Colby Municipal Airport

About
Name: Colby Municipal Airport
Identifier:  CBK/KCBK
Serves:  Colby, Kansas
Owner:  City of Colby
Public/Private:  Public
Local Time:  18. Aug 07:57 CDT
Description: Colby Municipal Airport or Shalz Field is on Kansas Highway 25, two miles north of Colby, in Thomas County, Kansas.
Source: Wikipedia
Location
Runways
Identifier Length (m/ft) Surface
17/35 5,110/5,110 Concrete
12/30 2,660/2,660 Turf
4/22 2,600/2,600 Turf
Flights per Day
1 flights
Distance: 263km (163mi)
Punctuality
85% (0 flights per day delayed)
Delay Average: 545 minutes
Current Weather
 15 C (Humidity: 100%)
  5kt (9km/h / 5mph) from 350°
  16km (10 mi.)
 
 METAR KCBK 181235Z AUTO 35005KT 10SM CLR 15/15 A2998 RMK AO2 PWINO

Current Flights

Departures
Number Departure To Airline
Arrivals
Number Arrival From Airline

Current Delays

Departures
N/A
Arrivals
N/A

Destinations

Top Destinations
Airport Flights
per week
Seats
per week
  Denver (DEN) 5 - 0 0
  McCook (MCK) 0 - 0 0
  Denver (APA) 0 - 0 0
  Hays (HYS) 0 - 0 0
  Dodge City (DDC) 0 - 0 0
  Salina (SLN) 0 - 0 0
  Olathe (JCI) 0 - 0 0
  Wichita (ICT) 0 - 0 0

Airlines & Planes

Top Airlines
Airline Flights
per Day
Seats
per Day
Bemidji Airlines 0 -
EagleMed 0 -
Jet Charter Inc ( Franklin Lakes Nj ) 0 -
Top Plane Types
Model Flights Seats
Beech 65 Queen Air 0.8/day - 0
Beech E90 King Air 0.4/day - 0
Piper PA-46-350P Malibu Mirage 0.1/day - 0